sensor_id;sensor_type;location;lat;lon;timestamp;temperature;humidity
21019;DHT22;10667;51.056;3.732;2022-11-06T00:00:57;11.50;99.90
21019;DHT22;10667;51.056;3.732;2022-11-06T00:03:23;11.50;99.90
21019;DHT22;10667;51.056;3.732;2022-11-06T00:05:49;11.50;99.90
21019;DHT22;10667;51.056;3.732;2022-11-06T00:08:36;11.60;99.90
21019;DHT22;10667;51.056;3.732;2022-11-06T00:11:09;11.60;99.90
21019;DHT22;10667;51.056;3.732;2022-11-06T00:13:35;11.70;99.90
21019;DHT22;10667;51.056;3.732;2022-11-06T00:16:02;11.70;99.90
21019;DHT22;10667;51.056;3.732;2022-11-06T00:18:28;11.60;99.90
21019;DHT22;10667;51.056;3.732;2022-11-06T00:20:54;11.70;99.90
21019;DHT22;10667;51.056;3.732;2022-11-06T00:23:20;11.80;99.90
21019;DHT22;10667;51.056;3.732;2022-11-06T00:25:45;11.80;99.90
21019;DHT22;10667;51.056;3.732;2022-11-06T00:28:11;11.80;99.90
21019;DHT22;10667;51.056;3.732;2022-11-06T00:30:37;11.70;99.90
21019;DHT22;10667;51.056;3.732;2022-11-06T00:33:02;11.70;99.90
21019;DHT22;10667;51.056;3.732;2022-11-06T00:35:28;11.70;99.90
21019;DHT22;10667;51.056;3.732;2022-11-06T00:37:54;11.70;99.90
21019;DHT22;10667;51.056;3.732;2022-11-06T00:40:20;11.70;99.90
21019;DHT22;10667;51.056;3.732;2022-11-06T00:42:46;11.70;99.90
21019;DHT22;10667;51.056;3.732;2022-11-06T00:45:12;11.70;99.90
21019;DHT22;10667;51.056;3.732;2022-11-06T00:47:37;11.70;99.90
21019;DHT22;10667;51.056;3.732;2022-11-06T00:50:03;11.80;99.90
21019;DHT22;10667;51.056;3.732;2022-11-06T00:52:29;11.80;99.90
21019;DHT22;10667;51.056;3.732;2022-11-06T00:54:55;11.90;99.90
21019;DHT22;10667;51.056;3.732;2022-11-06T00:57:20;11.80;99.90
21019;DHT22;10667;51.056;3.732;2022-11-06T00:59:46;11.70;99.90
21019;DHT22;10667;51.056;3.732;2022-11-06T01:02:12;11.70;99.90
21019;DHT22;10667;51.056;3.732;2022-11-06T01:04:38;11.70;99.90
21019;DHT22;10667;51.056;3.732;2022-11-06T01:07:04;11.70;99.90
21019;DHT22;10667;51.056;3.732;2022-11-06T01:09:30;11.70;99.90
21019;DHT22;10667;51.056;3.732;2022-11-06T01:11:57;11.70;99.90
21019;DHT22;10667;51.056;3.732;2022-11-06T01:14:24;11.60;99.90
21019;DHT22;10667;51.056;3.732;2022-11-06T01:16:50;11.60;99.90
21019;DHT22;10667;51.056;3.732;2022-11-06T01:19:17;11.60;99.90
21019;DHT22;10667;51.056;3.732;2022-11-06T01:21:45;11.60;99.90
21019;DHT22;10667;51.056;3.732;2022-11-06T01:24:16;11.60;99.90
21019;DHT22;10667;51.056;3.732;2022-11-06T01:26:42;11.60;99.90
21019;DHT22;10667;51.056;3.732;2022-11-06T01:29:12;11.60;99.90
21019;DHT22;10667;51.056;3.732;2022-11-06T01:31:37;11.50;99.90
21019;DHT22;10667;51.056;3.732;2022-11-06T01:34:04;11.50;99.90
21019;DHT22;10667;51.056;3.732;2022-11-06T01:36:30;11.40;99.90
21019;DHT22;10667;51.056;3.732;2022-11-06T01:38:59;11.50;99.90
21019;DHT22;10667;51.056;3.732;2022-11-06T01:41:34;11.50;99.90
21019;DHT22;10667;51.056;3.732;2022-11-06T01:44:58;11.50;99.90
21019;DHT22;10667;51.056;3.732;2022-11-06T01:46:51;11.50;99.90
21019;DHT22;10667;51.056;3.732;2022-11-06T01:49:16;11.50;99.90
21019;DHT22;10667;51.056;3.732;2022-11-06T01:51:55;11.50;99.90
21019;DHT22;10667;51.056;3.732;2022-11-06T01:54:24;11.60;99.90
21019;DHT22;10667;51.056;3.732;2022-11-06T01:56:52;11.70;99.90
21019;DHT22;10667;51.056;3.732;2022-11-06T01:59:21;11.70;99.90
21019;DHT22;10667;51.056;3.732;2022-11-06T02:01:48;11.80;99.90
21019;DHT22;10667;51.056;3.732;2022-11-06T02:04:37;11.80;99.90
21019;DHT22;10667;51.056;3.732;2022-11-06T02:07:05;11.70;99.90
21019;DHT22;10667;51.056;3.732;2022-11-06T02:09:33;11.60;99.90
21019;DHT22;10667;51.056;3.732;2022-11-06T02:12:17;11.60;99.90
21019;DHT22;10667;51.056;3.732;2022-11-06T02:15:03;11.70;99.90
21019;DHT22;10667;51.056;3.732;2022-11-06T02:29:02;11.60;99.90
21019;DHT22;10667;51.056;3.732;2022-11-06T02:31:30;11.60;99.90
21019;DHT22;10667;51.056;3.732;2022-11-06T02:34:01;11.60;99.90
21019;DHT22;10667;51.056;3.732;2022-11-06T02:36:34;11.60;99.90
21019;DHT22;10667;51.056;3.732;2022-11-06T02:39:04;11.60;99.90
21019;DHT22;10667;51.056;3.732;2022-11-06T02:41:36;11.60;99.90
21019;DHT22;10667;51.056;3.732;2022-11-06T02:44:05;11.50;99.90
21019;DHT22;10667;51.056;3.732;2022-11-06T02:46:42;11.40;99.90
21019;DHT22;10667;51.056;3.732;2022-11-06T02:49:16;11.50;99.90
21019;DHT22;10667;51.056;3.732;2022-11-06T02:51:47;11.50;99.90
21019;DHT22;10667;51.056;3.732;2022-11-06T02:54:14;11.60;99.90
21019;DHT22;10667;51.056;3.732;2022-11-06T02:56:45;11.60;99.90
21019;DHT22;10667;51.056;3.732;2022-11-06T02:59:21;11.60;99.90
21019;DHT22;10667;51.056;3.732;2022-11-06T03:01:52;11.60;99.90
21019;DHT22;10667;51.056;3.732;2022-11-06T03:04:22;11.50;99.90
21019;DHT22;10667;51.056;3.732;2022-11-06T03:06:53;11.50;99.90
21019;DHT22;10667;51.056;3.732;2022-11-06T03:09:26;11.50;99.90
21019;DHT22;10667;51.056;3.732;2022-11-06T03:12:01;11.50;99.90
21019;DHT22;10667;51.056;3.732;2022-11-06T03:14:35;11.50;99.90
21019;DHT22;10667;51.056;3.732;2022-11-06T03:17:20;11.50;99.90
21019;DHT22;10667;51.056;3.732;2022-11-06T03:22:50;11.50;99.90
21019;DHT22;10667;51.056;3.732;2022-11-06T03:25:37;11.50;99.90
21019;DHT22;10667;51.056;3.732;2022-11-06T03:28:31;11.60;99.90
21019;DHT22;10667;51.056;3.732;2022-11-06T03:31:02;11.50;99.90
21019;DHT22;10667;51.056;3.732;2022-11-06T03:36:16;11.50;99.90
21019;DHT22;10667;51.056;3.732;2022-11-06T03:38:47;11.50;99.90
21019;DHT22;10667;51.056;3.732;2022-11-06T03:41:21;11.40;99.90
21019;DHT22;10667;51.056;3.732;2022-11-06T03:43:51;11.50;99.90
21019;DHT22;10667;51.056;3.732;2022-11-06T03:46:20;11.50;99.90
21019;DHT22;10667;51.056;3.732;2022-11-06T03:48:57;11.40;99.90
21019;DHT22;10667;51.056;3.732;2022-11-06T03:54:05;11.40;99.90
21019;DHT22;10667;51.056;3.732;2022-11-06T03:59:28;11.40;99.90
21019;DHT22;10667;51.056;3.732;2022-11-06T04:01:57;11.50;99.90
21019;DHT22;10667;51.056;3.732;2022-11-06T04:04:36;11.40;99.90
21019;DHT22;10667;51.056;3.732;2022-11-06T04:09:58;11.50;99.90
21019;DHT22;10667;51.056;3.732;2022-11-06T04:12:44;11.50;99.90
21019;DHT22;10667;51.056;3.732;2022-11-06T04:15:35;11.50;99.90
21019;DHT22;10667;51.056;3.732;2022-11-06T04:18:10;11.60;99.90
21019;DHT22;10667;51.056;3.732;2022-11-06T04:20:45;11.60;99.90
21019;DHT22;10667;51.056;3.732;2022-11-06T04:23:41;11.50;99.90
21019;DHT22;10667;51.056;3.732;2022-11-06T04:26:21;11.50;99.90
21019;DHT22;10667;51.056;3.732;2022-11-06T04:29:33;11.50;99.90
21019;DHT22;10667;51.056;3.732;2022-11-06T04:32:11;11.60;99.90
21019;DHT22;10667;51.056;3.732;2022-11-06T04:37:35;11.50;99.90
21019;DHT22;10667;51.056;3.732;2022-11-06T04:43:43;11.50;99.90
21019;DHT22;10667;51.056;3.732;2022-11-06T04:46:15;11.50;99.90
21019;DHT22;10667;51.056;3.732;2022-11-06T04:48:44;11.60;99.90
21019;DHT22;10667;51.056;3.732;2022-11-06T04:51:12;11.60;99.90
21019;DHT22;10667;51.056;3.732;2022-11-06T04:53:39;11.60;99.90
21019;DHT22;10667;51.056;3.732;2022-11-06T04:56:12;11.60;99.90
21019;DHT22;10667;51.056;3.732;2022-11-06T04:58:38;11.70;99.90
21019;DHT22;10667;51.056;3.732;2022-11-06T05:01:05;11.60;99.90
21019;DHT22;10667;51.056;3.732;2022-11-06T05:03:30;11.60;99.90
21019;DHT22;10667;51.056;3.732;2022-11-06T05:05:56;11.50;99.90
21019;DHT22;10667;51.056;3.732;2022-11-06T05:08:22;11.50;99.90
21019;DHT22;10667;51.056;3.732;2022-11-06T05:10:47;11.60;99.90
21019;DHT22;10667;51.056;3.732;2022-11-06T05:13:14;11.50;99.90
21019;DHT22;10667;51.056;3.732;2022-11-06T05:15:41;11.50;99.90
21019;DHT22;10667;51.056;3.732;2022-11-06T05:18:07;11.50;99.90
21019;DHT22;10667;51.056;3.732;2022-11-06T05:20:32;11.50;99.90
21019;DHT22;10667;51.056;3.732;2022-11-06T05:22:58;11.70;99.90
21019;DHT22;10667;51.056;3.732;2022-11-06T05:25:29;11.60;99.90
21019;DHT22;10667;51.056;3.732;2022-11-06T05:27:56;11.60;99.90
21019;DHT22;10667;51.056;3.732;2022-11-06T05:30:23;11.60;99.90
21019;DHT22;10667;51.056;3.732;2022-11-06T05:32:49;11.60;99.90
21019;DHT22;10667;51.056;3.732;2022-11-06T05:35:16;11.60;99.90
21019;DHT22;10667;51.056;3.732;2022-11-06T05:37:41;11.50;99.90
21019;DHT22;10667;51.056;3.732;2022-11-06T05:40:07;11.50;99.90
21019;DHT22;10667;51.056;3.732;2022-11-06T05:42:35;11.50;99.90
21019;DHT22;10667;51.056;3.732;2022-11-06T05:45:01;11.50;99.90
21019;DHT22;10667;51.056;3.732;2022-11-06T05:47:27;11.40;99.90
21019;DHT22;10667;51.056;3.732;2022-11-06T05:49:53;11.40;99.90
21019;DHT22;10667;51.056;3.732;2022-11-06T05:52:18;11.40;99.90
21019;DHT22;10667;51.056;3.732;2022-11-06T05:54:44;11.50;99.90
21019;DHT22;10667;51.056;3.732;2022-11-06T05:57:10;11.60;99.90
21019;DHT22;10667;51.056;3.732;2022-11-06T05:59:35;11.50;99.90
21019;DHT22;10667;51.056;3.732;2022-11-06T06:02:01;11.50;99.90
21019;DHT22;10667;51.056;3.732;2022-11-06T06:04:27;11.60;99.90
21019;DHT22;10667;51.056;3.732;2022-11-06T06:06:52;11.60;99.90
21019;DHT22;10667;51.056;3.732;2022-11-06T06:09:18;11.60;99.90
21019;DHT22;10667;51.056;3.732;2022-11-06T06:11:44;11.60;99.90
21019;DHT22;10667;51.056;3.732;2022-11-06T06:14:09;11.60;99.90
21019;DHT22;10667;51.056;3.732;2022-11-06T06:16:35;11.60;99.90
21019;DHT22;10667;51.056;3.732;2022-11-06T06:19:01;11.60;99.90
21019;DHT22;10667;51.056;3.732;2022-11-06T06:21:26;11.70;99.90
21019;DHT22;10667;51.056;3.732;2022-11-06T06:23:52;11.70;99.90
21019;DHT22;10667;51.056;3.732;2022-11-06T06:26:17;11.60;99.90
21019;DHT22;10667;51.056;3.732;2022-11-06T06:28:43;11.50;99.90
21019;DHT22;10667;51.056;3.732;2022-11-06T06:31:11;11.60;99.90
21019;DHT22;10667;51.056;3.732;2022-11-06T06:33:37;11.50;99.90
21019;DHT22;10667;51.056;3.732;2022-11-06T06:36:03;11.60;99.90
21019;DHT22;10667;51.056;3.732;2022-11-06T06:38:29;11.60;99.90
21019;DHT22;10667;51.056;3.732;2022-11-06T06:41:02;11.60;99.90
21019;DHT22;10667;51.056;3.732;2022-11-06T06:43:28;11.60;99.90
21019;DHT22;10667;51.056;3.732;2022-11-06T06:46:00;11.60;99.90
21019;DHT22;10667;51.056;3.732;2022-11-06T06:48:27;11.70;99.90
21019;DHT22;10667;51.056;3.732;2022-11-06T06:50:57;11.70;99.90
21019;DHT22;10667;51.056;3.732;2022-11-06T06:53:23;11.70;99.90
21019;DHT22;10667;51.056;3.732;2022-11-06T06:55:49;11.80;99.90
21019;DHT22;10667;51.056;3.732;2022-11-06T06:58:15;11.80;99.90
21019;DHT22;10667;51.056;3.732;2022-11-06T07:00:41;11.90;99.90
21019;DHT22;10667;51.056;3.732;2022-11-06T07:03:06;11.90;99.90
21019;DHT22;10667;51.056;3.732;2022-11-06T07:05:32;11.90;99.90
21019;DHT22;10667;51.056;3.732;2022-11-06T07:07:58;12.00;99.90
21019;DHT22;10667;51.056;3.732;2022-11-06T07:10:23;12.00;99.90
21019;DHT22;10667;51.056;3.732;2022-11-06T07:12:49;12.10;99.90
21019;DHT22;10667;51.056;3.732;2022-11-06T07:15:15;12.10;99.90
21019;DHT22;10667;51.056;3.732;2022-11-06T07:17:40;12.20;99.90
21019;DHT22;10667;51.056;3.732;2022-11-06T07:20:07;12.30;99.90
21019;DHT22;10667;51.056;3.732;2022-11-06T07:22:33;12.30;99.90
21019;DHT22;10667;51.056;3.732;2022-11-06T07:24:59;12.30;99.90
21019;DHT22;10667;51.056;3.732;2022-11-06T07:27:25;12.30;99.90
21019;DHT22;10667;51.056;3.732;2022-11-06T07:29:51;12.40;99.90
21019;DHT22;10667;51.056;3.732;2022-11-06T07:32:16;12.40;99.90
21019;DHT22;10667;51.056;3.732;2022-11-06T07:34:42;12.50;99.90
21019;DHT22;10667;51.056;3.732;2022-11-06T07:37:08;12.50;99.90
21019;DHT22;10667;51.056;3.732;2022-11-06T07:39:34;12.50;99.90
21019;DHT22;10667;51.056;3.732;2022-11-06T07:41:59;12.50;99.90
21019;DHT22;10667;51.056;3.732;2022-11-06T07:44:25;12.50;99.90
21019;DHT22;10667;51.056;3.732;2022-11-06T07:46:51;12.60;99.90
21019;DHT22;10667;51.056;3.732;2022-11-06T07:49:16;12.50;99.90
21019;DHT22;10667;51.056;3.732;2022-11-06T07:51:43;12.50;99.90
21019;DHT22;10667;51.056;3.732;2022-11-06T07:54:11;12.50;99.90
21019;DHT22;10667;51.056;3.732;2022-11-06T07:56:37;12.70;99.90
21019;DHT22;10667;51.056;3.732;2022-11-06T07:59:03;12.70;99.90
21019;DHT22;10667;51.056;3.732;2022-11-06T08:01:29;12.80;99.90
21019;DHT22;10667;51.056;3.732;2022-11-06T08:03:55;12.80;99.90
21019;DHT22;10667;51.056;3.732;2022-11-06T08:06:21;12.80;99.90
21019;DHT22;10667;51.056;3.732;2022-11-06T08:08:47;12.80;99.90
21019;DHT22;10667;51.056;3.732;2022-11-06T08:11:13;12.80;99.90
21019;DHT22;10667;51.056;3.732;2022-11-06T08:13:39;12.90;99.90
21019;DHT22;10667;51.056;3.732;2022-11-06T08:16:09;12.90;99.90
21019;DHT22;10667;51.056;3.732;2022-11-06T08:18:35;12.90;99.90
21019;DHT22;10667;51.056;3.732;2022-11-06T08:21:02;12.90;99.90
21019;DHT22;10667;51.056;3.732;2022-11-06T08:23:28;12.80;99.90
21019;DHT22;10667;51.056;3.732;2022-11-06T08:25:55;12.80;99.90
21019;DHT22;10667;51.056;3.732;2022-11-06T08:28:22;12.90;99.90
21019;DHT22;10667;51.056;3.732;2022-11-06T08:30:47;12.90;99.90
21019;DHT22;10667;51.056;3.732;2022-11-06T08:33:13;12.80;99.90
21019;DHT22;10667;51.056;3.732;2022-11-06T08:35:39;12.80;99.90
21019;DHT22;10667;51.056;3.732;2022-11-06T08:38:05;12.90;99.90
21019;DHT22;10667;51.056;3.732;2022-11-06T08:40:31;12.90;99.90
21019;DHT22;10667;51.056;3.732;2022-11-06T08:42:59;12.90;99.90
21019;DHT22;10667;51.056;3.732;2022-11-06T08:45:25;12.90;99.90
21019;DHT22;10667;51.056;3.732;2022-11-06T08:47:51;12.80;99.90
21019;DHT22;10667;51.056;3.732;2022-11-06T08:50:17;12.90;99.90
21019;DHT22;10667;51.056;3.732;2022-11-06T08:52:43;12.90;99.90
21019;DHT22;10667;51.056;3.732;2022-11-06T08:55:08;13.00;99.90
21019;DHT22;10667;51.056;3.732;2022-11-06T08:57:34;12.90;99.90
21019;DHT22;10667;51.056;3.732;2022-11-06T09:00:00;12.80;99.90
21019;DHT22;10667;51.056;3.732;2022-11-06T09:02:26;12.80;99.90
21019;DHT22;10667;51.056;3.732;2022-11-06T09:04:51;12.80;99.90
21019;DHT22;10667;51.056;3.732;2022-11-06T09:07:17;12.80;99.90
21019;DHT22;10667;51.056;3.732;2022-11-06T09:09:43;12.80;99.90
21019;DHT22;10667;51.056;3.732;2022-11-06T09:12:08;12.80;99.90
21019;DHT22;10667;51.056;3.732;2022-11-06T09:14:34;12.90;99.90
21019;DHT22;10667;51.056;3.732;2022-11-06T09:17:00;12.80;99.90
21019;DHT22;10667;51.056;3.732;2022-11-06T09:19:26;12.90;99.90
21019;DHT22;10667;51.056;3.732;2022-11-06T09:21:52;12.80;99.90
21019;DHT22;10667;51.056;3.732;2022-11-06T09:24:17;12.90;99.90
21019;DHT22;10667;51.056;3.732;2022-11-06T09:26:43;12.90;99.90
21019;DHT22;10667;51.056;3.732;2022-11-06T09:29:08;12.90;99.90
21019;DHT22;10667;51.056;3.732;2022-11-06T09:31:34;12.90;99.90
21019;DHT22;10667;51.056;3.732;2022-11-06T09:34:00;12.90;99.90
21019;DHT22;10667;51.056;3.732;2022-11-06T09:36:26;12.90;99.90
21019;DHT22;10667;51.056;3.732;2022-11-06T09:38:51;13.00;99.90
21019;DHT22;10667;51.056;3.732;2022-11-06T09:41:42;13.00;99.90
21019;DHT22;10667;51.056;3.732;2022-11-06T09:46:46;12.90;99.90
21019;DHT22;10667;51.056;3.732;2022-11-06T09:49:36;12.90;99.90
21019;DHT22;10667;51.056;3.732;2022-11-06T09:52:32;12.90;99.90
21019;DHT22;10667;51.056;3.732;2022-11-06T09:55:13;13.00;99.90
21019;DHT22;10667;51.056;3.732;2022-11-06T10:00:14;13.00;99.90
21019;DHT22;10667;51.056;3.732;2022-11-06T10:02:55;13.00;99.90
21019;DHT22;10667;51.056;3.732;2022-11-06T10:05:25;13.00;99.90
21019;DHT22;10667;51.056;3.732;2022-11-06T10:07:58;13.00;99.90
21019;DHT22;10667;51.056;3.732;2022-11-06T10:13:21;13.10;99.90
21019;DHT22;10667;51.056;3.732;2022-11-06T10:15:58;12.90;99.90
21019;DHT22;10667;51.056;3.732;2022-11-06T10:18:55;13.00;99.90
21019;DHT22;10667;51.056;3.732;2022-11-06T10:21:30;12.90;99.90
21019;DHT22;10667;51.056;3.732;2022-11-06T10:24:10;13.00;99.90
21019;DHT22;10667;51.056;3.732;2022-11-06T10:26:40;13.10;99.90
21019;DHT22;10667;51.056;3.732;2022-11-06T10:35:07;12.90;99.90
21019;DHT22;10667;51.056;3.732;2022-11-06T10:38:24;12.90;99.90
21019;DHT22;10667;51.056;3.732;2022-11-06T10:40:31;12.90;99.90
21019;DHT22;10667;51.056;3.732;2022-11-06T10:43:15;12.90;99.90
21019;DHT22;10667;51.056;3.732;2022-11-06T10:45:47;12.90;99.90
21019;DHT22;10667;51.056;3.732;2022-11-06T10:48:29;13.00;99.90
21019;DHT22;10667;51.056;3.732;2022-11-06T10:51:15;13.00;99.90
21019;DHT22;10667;51.056;3.732;2022-11-06T10:59:16;13.10;99.90
21019;DHT22;10667;51.056;3.732;2022-11-06T11:01:41;13.10;99.90
21019;DHT22;10667;51.056;3.732;2022-11-06T11:04:07;13.10;99.90
21019;DHT22;10667;51.056;3.732;2022-11-06T11:06:33;13.10;99.90
21019;DHT22;10667;51.056;3.732;2022-11-06T11:08:58;13.10;99.90
21019;DHT22;10667;51.056;3.732;2022-11-06T11:11:27;13.20;99.90
21019;DHT22;10667;51.056;3.732;2022-11-06T11:16:27;13.30;99.90
21019;DHT22;10667;51.056;3.732;2022-11-06T11:18:53;13.40;99.90
21019;DHT22;10667;51.056;3.732;2022-11-06T11:24:11;13.40;99.90
21019;DHT22;10667;51.056;3.732;2022-11-06T11:26:45;13.40;99.90
21019;DHT22;10667;51.056;3.732;2022-11-06T11:29:27;13.30;99.90
21019;DHT22;10667;51.056;3.732;2022-11-06T11:31:56;13.20;99.90
21019;DHT22;10667;51.056;3.732;2022-11-06T11:34:30;13.20;99.90
21019;DHT22;10667;51.056;3.732;2022-11-06T11:37:00;13.10;99.90
21019;DHT22;10667;51.056;3.732;2022-11-06T11:42:28;13.10;99.90
21019;DHT22;10667;51.056;3.732;2022-11-06T11:47:40;13.10;99.90
21019;DHT22;10667;51.056;3.732;2022-11-06T11:50:16;13.00;99.90
21019;DHT22;10667;51.056;3.732;2022-11-06T11:52:46;12.90;99.90
21019;DHT22;10667;51.056;3.732;2022-11-06T11:55:17;12.80;99.90
21019;DHT22;10667;51.056;3.732;2022-11-06T11:57:46;12.80;99.90
21019;DHT22;10667;51.056;3.732;2022-11-06T12:00:19;12.70;99.90
21019;DHT22;10667;51.056;3.732;2022-11-06T12:02:57;12.60;99.90
21019;DHT22;10667;51.056;3.732;2022-11-06T12:05:36;12.50;99.90
21019;DHT22;10667;51.056;3.732;2022-11-06T12:08:04;12.40;99.90
21019;DHT22;10667;51.056;3.732;2022-11-06T12:10:39;12.30;99.90
21019;DHT22;10667;51.056;3.732;2022-11-06T12:13:25;12.20;99.90
21019;DHT22;10667;51.056;3.732;2022-11-06T12:18:45;12.00;99.90
21019;DHT22;10667;51.056;3.732;2022-11-06T12:21:16;11.80;99.90
21019;DHT22;10667;51.056;3.732;2022-11-06T12:29:14;11.70;99.90
21019;DHT22;10667;51.056;3.732;2022-11-06T12:31:52;11.60;99.90
21019;DHT22;10667;51.056;3.732;2022-11-06T12:34:29;11.60;99.90
21019;DHT22;10667;51.056;3.732;2022-11-06T12:37:27;11.50;99.90
21019;DHT22;10667;51.056;3.732;2022-11-06T12:39:56;11.40;99.90
21019;DHT22;10667;51.056;3.732;2022-11-06T12:42:28;11.40;99.90
21019;DHT22;10667;51.056;3.732;2022-11-06T12:44:55;11.30;99.90
21019;DHT22;10667;51.056;3.732;2022-11-06T12:47:42;11.20;99.90
21019;DHT22;10667;51.056;3.732;2022-11-06T12:50:31;11.20;99.90
21019;DHT22;10667;51.056;3.732;2022-11-06T12:53:14;11.20;99.90
21019;DHT22;10667;51.056;3.732;2022-11-06T12:56:02;11.10;99.90
21019;DHT22;10667;51.056;3.732;2022-11-06T13:02:00;11.00;99.90
21019;DHT22;10667;51.056;3.732;2022-11-06T13:04:31;11.00;99.90
21019;DHT22;10667;51.056;3.732;2022-11-06T13:09:58;10.90;99.90
21019;DHT22;10667;51.056;3.732;2022-11-06T13:15:17;10.90;99.90
21019;DHT22;10667;51.056;3.732;2022-11-06T13:20:25;10.90;99.90
21019;DHT22;10667;51.056;3.732;2022-11-06T13:28:30;10.70;99.90
21019;DHT22;10667;51.056;3.732;2022-11-06T13:30:57;10.70;99.90
21019;DHT22;10667;51.056;3.732;2022-11-06T13:33:29;10.70;99.90
21019;DHT22;10667;51.056;3.732;2022-11-06T13:35:58;10.60;99.90
21019;DHT22;10667;51.056;3.732;2022-11-06T13:38:29;10.70;99.90
21019;DHT22;10667;51.056;3.732;2022-11-06T13:41:33;10.70;99.90
21019;DHT22;10667;51.056;3.732;2022-11-06T13:44:02;10.70;99.90
21019;DHT22;10667;51.056;3.732;2022-11-06T13:46:34;10.60;99.90
21019;DHT22;10667;51.056;3.732;2022-11-06T13:49:18;10.60;99.90
21019;DHT22;10667;51.056;3.732;2022-11-06T13:51:59;10.50;99.90
21019;DHT22;10667;51.056;3.732;2022-11-06T14:08:02;10.50;99.90
21019;DHT22;10667;51.056;3.732;2022-11-06T14:10:35;10.50;99.90
21019;DHT22;10667;51.056;3.732;2022-11-06T14:13:04;10.40;99.90
21019;DHT22;10667;51.056;3.732;2022-11-06T14:15:36;10.30;99.90
21019;DHT22;10667;51.056;3.732;2022-11-06T14:18:04;10.30;99.90
21019;DHT22;10667;51.056;3.732;2022-11-06T14:20:36;10.30;99.90
21019;DHT22;10667;51.056;3.732;2022-11-06T14:26:08;10.20;99.90
21019;DHT22;10667;51.056;3.732;2022-11-06T14:28:40;10.20;99.90
21019;DHT22;10667;51.056;3.732;2022-11-06T14:31:07;10.00;99.90
21019;DHT22;10667;51.056;3.732;2022-11-06T14:36:28;10.10;99.90
21019;DHT22;10667;51.056;3.732;2022-11-06T14:38:54;10.10;99.90
21019;DHT22;10667;51.056;3.732;2022-11-06T14:44:00;10.10;99.90
21019;DHT22;10667;51.056;3.732;2022-11-06T14:46:28;10.00;99.90
21019;DHT22;10667;51.056;3.732;2022-11-06T14:49:05;10.00;99.90
21019;DHT22;10667;51.056;3.732;2022-11-06T14:51:32;10.00;99.90
21019;DHT22;10667;51.056;3.732;2022-11-06T14:54:00;10.00;99.90
21019;DHT22;10667;51.056;3.732;2022-11-06T14:56:30;10.00;99.90
21019;DHT22;10667;51.056;3.732;2022-11-06T14:59:27;9.90;99.90
21019;DHT22;10667;51.056;3.732;2022-11-06T15:01:54;9.90;99.90
21019;DHT22;10667;51.056;3.732;2022-11-06T15:04:22;10.00;99.90
21019;DHT22;10667;51.056;3.732;2022-11-06T15:06:50;10.00;99.90
21019;DHT22;10667;51.056;3.732;2022-11-06T15:11:49;10.10;99.90
21019;DHT22;10667;51.056;3.732;2022-11-06T15:17:01;9.90;99.90
21019;DHT22;10667;51.056;3.732;2022-11-06T15:19:32;9.90;99.90
21019;DHT22;10667;51.056;3.732;2022-11-06T15:27:27;9.90;99.90
21019;DHT22;10667;51.056;3.732;2022-11-06T15:29:57;9.90;99.90
21019;DHT22;10667;51.056;3.732;2022-11-06T15:32:26;10.00;99.90
21019;DHT22;10667;51.056;3.732;2022-11-06T15:37:33;9.90;99.90
21019;DHT22;10667;51.056;3.732;2022-11-06T15:40:00;10.00;99.90
21019;DHT22;10667;51.056;3.732;2022-11-06T15:42:31;10.00;99.90
21019;DHT22;10667;51.056;3.732;2022-11-06T15:47:41;10.10;99.90
21019;DHT22;10667;51.056;3.732;2022-11-06T15:50:25;10.10;99.90
21019;DHT22;10667;51.056;3.732;2022-11-06T15:52:51;10.10;99.90
21019;DHT22;10667;51.056;3.732;2022-11-06T15:55:32;10.10;99.90
21019;DHT22;10667;51.056;3.732;2022-11-06T15:58:23;10.10;99.90
21019;DHT22;10667;51.056;3.732;2022-11-06T16:00:49;10.10;99.90
21019;DHT22;10667;51.056;3.732;2022-11-06T16:03:17;10.10;99.90
21019;DHT22;10667;51.056;3.732;2022-11-06T16:05:43;10.20;99.90
21019;DHT22;10667;51.056;3.732;2022-11-06T16:08:12;10.20;99.90
21019;DHT22;10667;51.056;3.732;2022-11-06T16:10:38;10.20;99.90
21019;DHT22;10667;51.056;3.732;2022-11-06T16:13:05;10.20;99.90
21019;DHT22;10667;51.056;3.732;2022-11-06T16:24:08;10.30;99.90
21019;DHT22;10667;51.056;3.732;2022-11-06T16:26:45;10.20;99.90
21019;DHT22;10667;51.056;3.732;2022-11-06T16:29:26;10.20;99.90
21019;DHT22;10667;51.056;3.732;2022-11-06T16:32:04;10.20;99.90
21019;DHT22;10667;51.056;3.732;2022-11-06T16:37:41;10.20;99.90
21019;DHT22;10667;51.056;3.732;2022-11-06T16:42:26;10.30;99.90
21019;DHT22;10667;51.056;3.732;2022-11-06T16:45:14;10.30;99.90
21019;DHT22;10667;51.056;3.732;2022-11-06T16:47:41;10.40;99.90
21019;DHT22;10667;51.056;3.732;2022-11-06T16:53:15;10.40;99.90
21019;DHT22;10667;51.056;3.732;2022-11-06T16:55:42;10.40;99.90
21019;DHT22;10667;51.056;3.732;2022-11-06T16:58:14;10.30;99.90
21019;DHT22;10667;51.056;3.732;2022-11-06T17:00:41;10.30;99.90
21019;DHT22;10667;51.056;3.732;2022-11-06T17:03:18;10.30;99.90
21019;DHT22;10667;51.056;3.732;2022-11-06T17:05:55;10.30;99.90
21019;DHT22;10667;51.056;3.732;2022-11-06T17:08:35;10.30;99.90
21019;DHT22;10667;51.056;3.732;2022-11-06T17:11:17;10.30;99.90
21019;DHT22;10667;51.056;3.732;2022-11-06T17:13:46;10.40;99.90
21019;DHT22;10667;51.056;3.732;2022-11-06T17:16:19;10.30;99.90
21019;DHT22;10667;51.056;3.732;2022-11-06T17:18:45;10.30;99.90
21019;DHT22;10667;51.056;3.732;2022-11-06T17:21:23;10.30;99.90
21019;DHT22;10667;51.056;3.732;2022-11-06T17:23:50;10.40;99.90
21019;DHT22;10667;51.056;3.732;2022-11-06T17:26:40;10.40;99.90
21019;DHT22;10667;51.056;3.732;2022-11-06T17:29:09;10.40;99.90
21019;DHT22;10667;51.056;3.732;2022-11-06T17:31:35;10.40;99.90
21019;DHT22;10667;51.056;3.732;2022-11-06T17:34:00;10.40;99.90
21019;DHT22;10667;51.056;3.732;2022-11-06T17:36:27;10.50;99.90
21019;DHT22;10667;51.056;3.732;2022-11-06T17:38:55;10.50;99.90
21019;DHT22;10667;51.056;3.732;2022-11-06T17:41:22;10.50;99.90
21019;DHT22;10667;51.056;3.732;2022-11-06T17:44:02;10.50;99.90
21019;DHT22;10667;51.056;3.732;2022-11-06T17:46:31;10.50;99.90
21019;DHT22;10667;51.056;3.732;2022-11-06T17:48:57;10.60;99.90
21019;DHT22;10667;51.056;3.732;2022-11-06T17:51:23;10.50;99.90
21019;DHT22;10667;51.056;3.732;2022-11-06T17:54:09;10.50;99.90
21019;DHT22;10667;51.056;3.732;2022-11-06T17:56:35;10.50;99.90
21019;DHT22;10667;51.056;3.732;2022-11-06T17:59:00;10.60;99.90
21019;DHT22;10667;51.056;3.732;2022-11-06T18:01:26;10.60;99.90
21019;DHT22;10667;51.056;3.732;2022-11-06T18:03:52;10.60;99.90
21019;DHT22;10667;51.056;3.732;2022-11-06T18:06:17;10.60;99.90
21019;DHT22;10667;51.056;3.732;2022-11-06T18:08:43;10.60;99.90
21019;DHT22;10667;51.056;3.732;2022-11-06T18:11:09;10.60;99.90
21019;DHT22;10667;51.056;3.732;2022-11-06T18:13:35;10.70;99.90